createdAt,value
2018-02-06T00:00:44.070Z,8.83
2018-02-06T00:03:10.158Z,9.43
2018-02-06T00:05:36.544Z,9.00
2018-02-06T00:08:02.674Z,10.70
2018-02-06T00:10:28.792Z,10.40
2018-02-06T00:12:55.229Z,9.83
2018-02-06T00:15:21.336Z,11.17
2018-02-06T00:17:47.443Z,9.07
2018-02-06T00:20:13.916Z,7.57
2018-02-06T00:22:49.242Z,8.53
2018-02-06T00:25:15.787Z,6.83
2018-02-06T00:27:41.885Z,6.87
2018-02-06T00:30:08.004Z,6.70
2018-02-06T00:32:34.480Z,6.53
2018-02-06T00:35:00.609Z,7.00
2018-02-06T00:37:26.736Z,5.73
2018-02-06T00:39:54.705Z,6.40
2018-02-06T00:42:20.829Z,5.60
2018-02-06T00:44:46.945Z,5.73
2018-02-06T00:47:13.390Z,5.67
2018-02-06T00:49:39.525Z,5.57
2018-02-06T00:52:05.660Z,6.37
2018-02-06T00:54:32.788Z,5.50
2018-02-06T00:56:59.659Z,6.10
2018-02-06T00:59:25.774Z,5.60
2018-02-06T01:01:53.005Z,6.03
2018-02-06T01:04:19.129Z,5.13
2018-02-06T01:06:45.268Z,5.37
2018-02-06T01:09:11.659Z,5.90
2018-02-06T01:11:37.773Z,5.33
2018-02-06T01:14:03.907Z,5.57
2018-02-06T01:16:30.366Z,5.03
2018-02-06T01:18:56.495Z,5.27
2018-02-06T01:21:22.624Z,5.10
2018-02-06T01:23:49.873Z,5.77
2018-02-06T01:26:16.002Z,5.57
2018-02-06T01:28:42.846Z,5.27
2018-02-06T01:31:09.386Z,5.10
2018-02-06T01:33:35.507Z,5.00
2018-02-06T01:36:01.633Z,5.27
2018-02-06T01:38:27.759Z,4.80
2018-02-06T01:40:53.887Z,4.70
2018-02-06T01:43:20.013Z,4.63
2018-02-06T01:45:46.526Z,5.43
2018-02-06T01:48:12.639Z,5.13
2018-02-06T01:50:38.738Z,5.10
2018-02-06T01:53:05.321Z,4.90
2018-02-06T01:55:31.443Z,4.73
2018-02-06T01:57:58.304Z,4.50
2018-02-06T02:00:24.460Z,5.10
2018-02-06T02:02:50.576Z,5.03
2018-02-06T02:05:16.692Z,4.70
2018-02-06T02:07:43.916Z,4.53
2018-02-06T02:10:10.022Z,4.97
2018-02-06T02:12:36.160Z,4.50
2018-02-06T02:15:02.608Z,4.90
2018-02-06T02:17:28.719Z,5.10
2018-02-06T02:19:55.848Z,5.07
2018-02-06T02:22:22.410Z,5.37
2018-02-06T02:24:49.276Z,5.13
2018-02-06T02:27:16.162Z,5.20
2018-02-06T02:29:42.270Z,5.23
2018-02-06T02:32:08.396Z,4.83
2018-02-06T02:34:34.502Z,5.50
2018-02-06T02:37:01.368Z,5.00
2018-02-06T02:39:27.481Z,5.47
2018-02-06T04:38:54.772Z,6.47
2018-02-06T04:41:22.005Z,6.33
2018-02-06T04:43:48.127Z,6.23
2018-02-06T04:46:14.236Z,6.57
2018-02-06T04:48:40.669Z,7.03
2018-02-06T04:51:06.786Z,6.77
2018-02-06T04:53:32.900Z,7.77
2018-02-06T04:55:59.372Z,7.57
2018-02-06T04:58:25.487Z,8.10
2018-02-06T05:00:53.255Z,8.50
2018-02-06T05:03:21.227Z,8.80
2018-02-06T05:05:47.340Z,8.60
2018-02-06T05:08:13.539Z,8.57
2018-02-06T05:10:40.098Z,8.70
2018-02-06T05:13:06.208Z,8.17
2018-02-06T05:15:32.350Z,8.07
2018-02-06T05:17:58.798Z,8.33
2018-02-06T05:20:24.936Z,9.13
2018-02-06T05:22:51.808Z,9.67
2018-02-06T05:25:18.298Z,10.17
2018-02-06T05:27:44.406Z,8.73
2018-02-06T05:30:10.522Z,8.90
2018-02-06T05:32:37.074Z,9.70
2018-02-06T05:35:03.182Z,9.20
2018-02-06T05:37:29.355Z,10.70
2018-02-06T05:39:55.853Z,13.60
2018-02-06T05:42:21.979Z,13.90
2018-02-06T05:44:48.105Z,14.00
2018-02-06T05:47:14.544Z,12.90
2018-02-06T05:49:40.635Z,11.00
2018-02-06T05:52:06.739Z,10.27
2018-02-06T05:54:33.252Z,9.47
2018-02-06T05:57:00.112Z,9.00
2018-02-06T05:59:26.959Z,8.03
2018-02-06T06:01:53.546Z,8.50
2018-02-06T06:04:19.670Z,7.67
2018-02-06T06:06:45.762Z,8.60
2018-02-06T06:09:12.230Z,8.60
2018-02-06T06:11:38.353Z,9.60
2018-02-06T06:14:04.535Z,13.37
2018-02-06T06:16:31.001Z,12.03
2018-02-06T06:18:57.090Z,10.90
2018-02-06T06:21:23.201Z,11.77
2018-02-06T06:23:50.430Z,10.20
2018-02-06T06:26:16.553Z,10.57
2018-02-06T06:28:42.677Z,10.23
2018-02-06T06:31:09.097Z,10.10
2018-02-06T06:33:35.221Z,9.77
2018-02-06T06:36:01.336Z,9.17
2018-02-06T06:38:28.210Z,8.50
2018-02-06T06:40:55.100Z,9.10
2018-02-06T06:43:21.188Z,8.10
2018-02-06T06:45:47.720Z,8.47
2018-02-06T06:48:14.572Z,8.57
2018-02-06T06:50:40.691Z,8.50
2018-02-06T06:53:07.927Z,8.50
2018-02-06T06:55:34.044Z,8.20
2018-02-06T06:58:00.910Z,8.50
2018-02-06T07:00:27.784Z,8.77
2018-02-06T07:02:53.909Z,8.10
2018-02-06T07:05:20.030Z,8.60
2018-02-06T07:07:46.632Z,8.43
2018-02-06T07:10:12.733Z,9.00
2018-02-06T07:12:38.820Z,8.63
2018-02-06T07:15:05.390Z,8.97
2018-02-06T07:17:31.509Z,8.73
2018-02-06T07:19:57.636Z,8.83
2018-02-06T07:22:24.095Z,8.87
2018-02-06T07:24:50.213Z,9.07
2018-02-06T07:27:16.343Z,9.30
2018-02-06T07:29:43.592Z,8.57
2018-02-06T07:32:09.711Z,8.07
2018-02-06T07:34:35.821Z,8.83
2018-02-06T07:37:03.086Z,8.80
2018-02-06T07:39:29.202Z,8.40
2018-02-06T07:41:55.323Z,8.77
2018-02-06T07:44:21.754Z,9.30
2018-02-06T07:46:47.889Z,8.60
2018-02-06T07:49:14.059Z,8.80
2018-02-06T07:51:40.566Z,9.00
2018-02-06T07:54:06.675Z,8.70
2018-02-06T07:56:32.769Z,9.37
2018-02-06T07:58:59.239Z,13.63
2018-02-06T08:01:25.334Z,11.93
2018-02-06T08:03:51.434Z,9.80
2018-02-06T08:06:17.847Z,8.93
2018-02-06T08:08:44.693Z,8.70
2018-02-06T08:11:11.542Z,8.80
2018-02-06T08:13:38.046Z,8.53
2018-02-06T08:16:04.932Z,8.57
2018-02-06T08:18:31.060Z,8.77
2018-02-06T08:20:57.542Z,8.77
2018-02-06T08:23:23.695Z,9.67
2018-02-06T08:25:49.811Z,9.60
2018-02-06T08:28:16.237Z,9.10
2018-02-06T08:30:43.225Z,8.80
2018-02-06T08:33:09.331Z,9.73
2018-02-06T08:35:36.564Z,8.77
2018-02-06T08:38:02.702Z,9.37
2018-02-06T08:40:29.572Z,9.43
2018-02-06T08:43:04.961Z,9.70
2018-02-06T08:45:31.077Z,8.90
2018-02-06T08:47:57.199Z,9.23
2018-02-06T08:50:23.641Z,10.03
2018-02-06T08:52:50.789Z,9.57
2018-02-06T08:55:16.900Z,9.27
2018-02-06T08:57:43.451Z,14.23
2018-02-06T09:00:09.572Z,10.90
2018-02-06T09:02:35.677Z,10.27
2018-02-06T09:05:02.154Z,10.53
2018-02-06T09:07:28.247Z,9.63
2018-02-06T09:09:54.358Z,10.63
2018-02-06T09:12:20.927Z,10.53
2018-02-06T09:14:47.081Z,11.03
2018-02-06T09:17:13.968Z,11.17
2018-02-06T09:19:40.417Z,11.07
2018-02-06T09:22:08.013Z,11.10
2018-02-06T09:24:41.537Z,11.17
2018-02-06T09:27:07.673Z,11.40
2018-02-06T09:29:33.788Z,10.90
2018-02-06T09:32:00.314Z,10.33
2018-02-06T09:34:26.422Z,11.10
2018-02-06T09:36:54.139Z,10.87
2018-02-06T09:39:20.592Z,11.10
2018-02-06T09:41:46.712Z,10.93
2018-02-06T09:44:12.828Z,12.20
2018-02-06T09:46:39.258Z,11.07
2018-02-06T09:49:06.249Z,11.13
2018-02-06T09:51:32.371Z,10.60
2018-02-06T09:53:59.605Z,11.67
2018-02-06T09:56:25.749Z,10.80
2018-02-06T09:58:52.646Z,10.43
2018-02-06T10:01:19.052Z,10.43
2018-02-06T10:03:45.846Z,10.60
2018-02-06T10:06:11.952Z,9.70
2018-02-06T10:08:38.413Z,12.33
2018-02-06T10:11:04.526Z,11.03
2018-02-06T10:13:30.679Z,10.00
2018-02-06T10:15:57.968Z,11.10
2018-02-06T10:18:24.087Z,10.47
2018-02-06T10:20:50.219Z,9.57
2018-02-06T10:23:16.792Z,10.90
2018-02-06T10:25:42.942Z,10.57
2018-02-06T10:28:09.826Z,9.63
2018-02-06T10:30:36.407Z,10.07
2018-02-06T10:33:02.527Z,9.87
2018-02-06T10:35:28.635Z,10.27
2018-02-06T10:37:55.169Z,9.50
2018-02-06T10:40:21.294Z,9.33
2018-02-06T10:42:47.411Z,9.43
2018-02-06T10:45:13.863Z,10.07
2018-02-06T10:47:39.994Z,9.27
2018-02-06T10:50:06.871Z,9.60
2018-02-06T10:52:33.288Z,9.20
2018-02-06T10:54:59.419Z,10.17
2018-02-06T10:57:26.319Z,9.53
2018-02-06T10:59:52.867Z,9.03
2018-02-06T11:02:18.983Z,8.97
2018-02-06T11:04:45.116Z,8.37
2018-02-06T11:07:11.746Z,9.20
2018-02-06T11:09:37.855Z,8.47
2018-02-06T11:12:03.987Z,9.93
2018-02-06T11:14:30.445Z,9.53
2018-02-06T11:16:56.559Z,9.13
2018-02-06T11:19:22.681Z,9.00
2018-02-06T11:21:49.151Z,8.50
2018-02-06T11:24:16.004Z,8.13
2018-02-06T11:26:42.865Z,8.07
2018-02-06T11:29:09.450Z,7.37
2018-02-06T11:31:35.572Z,7.90
2018-02-06T11:34:01.677Z,7.10
2018-02-06T11:36:28.835Z,6.73
2018-02-06T11:38:54.946Z,6.63
2018-02-06T11:41:21.055Z,6.40
2018-02-06T11:43:47.461Z,6.30
2018-02-06T11:46:13.611Z,5.87
2018-02-06T11:48:39.721Z,5.73
2018-02-06T11:51:06.211Z,5.57
2018-02-06T11:53:32.333Z,4.97
2018-02-06T11:55:58.483Z,4.90
2018-02-06T11:58:24.993Z,5.17
2018-02-06T12:00:51.142Z,5.33
2018-02-06T12:03:17.280Z,5.80
2018-02-06T12:05:43.680Z,5.30
2018-02-06T12:08:09.795Z,4.70
2018-02-06T12:10:35.924Z,5.70
2018-02-06T12:13:02.357Z,5.30
2018-02-06T12:15:28.471Z,4.43
2018-02-06T12:17:54.559Z,5.20
2018-02-06T12:20:20.998Z,5.40
2018-02-06T12:22:47.115Z,4.50
2018-02-06T12:25:13.221Z,4.60
2018-02-06T12:27:39.727Z,5.00
2018-02-06T12:30:05.844Z,4.60
2018-02-06T12:32:32.011Z,4.40
2018-02-06T12:34:59.132Z,4.77
2018-02-06T12:37:25.261Z,4.67
2018-02-06T12:39:51.371Z,4.60
2018-02-06T12:42:17.814Z,4.87
2018-02-06T12:44:43.991Z,4.53
2018-02-06T12:47:10.107Z,4.80
2018-02-06T12:49:36.704Z,4.23
2018-02-06T12:52:03.560Z,4.30
2018-02-06T12:54:30.431Z,4.53
2018-02-06T12:56:56.908Z,4.00
2018-02-06T12:59:23.004Z,4.30
2018-02-06T13:01:49.110Z,4.43
2018-02-06T13:04:15.556Z,4.30
2018-02-06T13:06:41.689Z,4.73
2018-02-06T13:09:07.813Z,4.83
2018-02-06T13:11:34.374Z,4.17
2018-02-06T13:14:00.485Z,3.87
2018-02-06T13:16:26.570Z,4.03
2018-02-06T13:18:52.973Z,4.30
2018-02-06T13:21:19.081Z,4.30
2018-02-06T13:23:45.944Z,4.97
2018-02-06T13:26:12.573Z,5.60
2018-02-06T13:28:38.702Z,8.33
2018-02-06T13:31:04.821Z,5.83
2018-02-06T13:33:31.237Z,4.90
2018-02-06T13:35:57.399Z,5.07
2018-02-06T13:38:23.536Z,4.87
2018-02-06T13:40:50.761Z,5.30
2018-02-06T13:43:16.906Z,5.07
2018-02-06T13:45:43.073Z,4.90
2018-02-06T13:48:09.549Z,4.50
2018-02-06T13:50:37.133Z,5.10
2018-02-06T13:53:04.003Z,4.50
2018-02-06T13:55:30.395Z,5.30
2018-02-06T13:57:56.532Z,8.40
2018-02-06T14:00:22.764Z,5.80
2018-02-06T14:02:49.276Z,4.40
2018-02-06T14:05:15.390Z,4.10
2018-02-06T14:07:41.535Z,4.43
2018-02-06T14:10:08.052Z,4.47
2018-02-06T14:12:34.920Z,4.90
2018-02-06T14:15:01.772Z,4.70
2018-02-06T14:17:28.912Z,4.80
2018-02-06T14:19:55.780Z,4.43
2018-02-06T14:22:21.899Z,4.30
2018-02-06T14:24:48.313Z,4.63
2018-02-06T14:27:15.183Z,4.93
2018-02-06T14:29:41.279Z,4.50
2018-02-06T14:32:07.753Z,5.10
2018-02-06T14:34:33.891Z,4.60
2018-02-06T14:37:00.018Z,4.50
2018-02-06T14:39:26.483Z,5.07
2018-02-06T14:41:52.621Z,4.60
2018-02-06T14:44:19.467Z,4.60
2018-02-06T14:46:46.679Z,4.77
2018-02-06T14:49:12.838Z,5.07
2018-02-06T14:51:38.955Z,4.93
2018-02-06T14:54:05.414Z,4.83
2018-02-06T14:56:32.303Z,4.90
2018-02-06T14:58:58.430Z,4.60
2018-02-06T15:01:24.875Z,4.67
2018-02-06T15:03:51.496Z,5.00
2018-02-06T15:06:18.415Z,4.90
2018-02-06T15:08:44.564Z,4.90
2018-02-06T15:11:10.696Z,5.23
2018-02-06T15:13:36.819Z,5.20
2018-02-06T15:16:03.265Z,4.90
2018-02-06T15:18:29.370Z,5.10
2018-02-06T15:20:55.501Z,10.77
2018-02-06T15:23:21.942Z,6.40
2018-02-06T15:25:48.054Z,5.30
2018-02-06T15:28:14.163Z,5.00
2018-02-06T15:30:40.631Z,5.00
2018-02-06T15:33:06.781Z,5.73
2018-02-06T15:35:32.916Z,4.80
2018-02-06T15:38:00.152Z,4.80
2018-02-06T15:40:26.285Z,4.87
2018-02-06T15:42:53.136Z,4.83
2018-02-06T15:45:19.584Z,5.30
2018-02-06T15:47:45.699Z,5.00
2018-02-06T15:50:12.592Z,4.63
2018-02-06T15:52:39.055Z,4.73
2018-02-06T15:55:05.204Z,5.37
2018-02-06T15:57:31.307Z,4.53
2018-02-06T15:59:57.927Z,5.53
2018-02-06T16:02:24.097Z,4.83
2018-02-06T16:04:50.187Z,4.83
2018-02-06T16:07:16.610Z,4.87
2018-02-06T16:09:42.738Z,5.30
2018-02-06T16:12:08.855Z,4.97
2018-02-06T16:14:35.293Z,6.30
2018-02-06T16:17:01.430Z,6.23
2018-02-06T16:19:27.537Z,5.73
2018-02-06T16:21:53.983Z,5.93
2018-02-06T16:24:20.075Z,5.47
2018-02-06T16:26:46.176Z,5.83
2018-02-06T16:29:12.672Z,6.20
2018-02-06T16:31:38.777Z,7.00
2018-02-06T16:34:04.935Z,6.37
2018-02-06T16:36:31.342Z,6.27
2018-02-06T16:38:57.502Z,5.87
2018-02-06T16:41:24.372Z,6.60
2018-02-06T16:43:50.903Z,6.33
2018-02-06T16:46:17.091Z,6.70
2018-02-06T16:48:43.222Z,7.90
2018-02-06T16:51:10.445Z,6.40
2018-02-06T16:53:36.558Z,5.90
2018-02-06T16:56:02.705Z,5.90
2018-02-06T16:58:29.133Z,7.17
2018-02-06T17:00:55.288Z,6.23
2018-02-06T17:03:21.410Z,6.47
2018-02-06T17:05:48.639Z,6.07
2018-02-06T17:08:14.753Z,6.40
2018-02-06T17:10:40.866Z,6.13
2018-02-06T17:13:07.376Z,5.47
2018-02-06T17:15:34.235Z,5.13
2018-02-06T17:18:00.363Z,8.90
2018-02-06T17:20:26.922Z,7.97
2018-02-06T17:22:53.048Z,10.37
2018-02-06T17:25:19.191Z,6.73
2018-02-06T17:27:45.808Z,6.37
2018-02-06T17:30:11.936Z,6.00
2018-02-06T17:32:38.063Z,6.27
2018-02-06T17:35:04.506Z,6.33
2018-02-06T17:37:30.647Z,6.70
2018-02-06T17:39:56.769Z,6.33
2018-02-06T17:42:23.288Z,7.27
2018-02-06T17:44:49.404Z,8.43
2018-02-06T17:47:15.656Z,7.57
2018-02-06T17:49:42.078Z,8.23
2018-02-06T17:52:08.262Z,8.00
2018-02-06T17:54:34.444Z,9.33
2018-02-06T17:57:00.977Z,8.90
2018-02-06T17:59:28.257Z,8.83
2018-02-06T18:01:54.448Z,8.53
2018-02-06T18:04:21.901Z,8.43
2018-02-06T18:06:48.026Z,8.50
2018-02-06T18:09:14.140Z,8.23
2018-02-06T18:11:40.586Z,8.30
2018-02-06T18:14:06.737Z,8.07
2018-02-06T18:16:39.924Z,8.70
2018-02-06T18:19:06.436Z,8.47
2018-02-06T18:21:32.570Z,9.10
2018-02-06T18:23:58.718Z,9.27
2018-02-06T18:26:25.148Z,8.97
2018-02-06T18:28:51.277Z,9.33
2018-02-06T18:31:17.442Z,8.77
2018-02-06T18:33:44.017Z,8.63
2018-02-06T18:36:10.895Z,8.10
2018-02-06T18:38:37.037Z,8.30
2018-02-06T18:41:03.703Z,8.47
2018-02-06T18:43:29.850Z,7.83
2018-02-06T18:45:55.973Z,8.00
2018-02-06T18:48:23.217Z,8.30
2018-02-06T18:50:49.390Z,8.57
2018-02-06T18:53:15.577Z,10.10
2018-02-06T18:55:43.486Z,9.67
2018-02-06T18:58:09.674Z,9.53
2018-02-06T19:00:36.687Z,13.20
2018-02-06T19:03:03.128Z,10.20
2018-02-06T19:05:29.360Z,9.40
2018-02-06T19:07:56.402Z,8.57
2018-02-06T19:10:22.968Z,8.57
2018-02-06T19:12:49.848Z,8.47
2018-02-06T19:15:16.069Z,9.20
2018-02-06T19:17:42.678Z,8.83
2018-02-06T19:20:10.648Z,8.40
2018-02-06T19:22:36.879Z,8.57
2018-02-06T19:25:03.657Z,9.13
2018-02-06T19:27:29.854Z,9.00
2018-02-06T19:39:41.507Z,9.33
2018-02-06T19:42:08.570Z,9.97
2018-02-06T19:44:34.879Z,9.97
2018-02-06T19:47:02.222Z,10.07
2018-02-06T19:49:29.837Z,9.97
2018-02-06T19:51:56.124Z,10.03
2018-02-06T19:54:23.498Z,9.70
2018-02-06T19:56:52.376Z,9.93
2018-02-06T19:59:18.725Z,10.97
2018-02-06T20:01:45.642Z,10.87
2018-02-06T20:04:13.289Z,10.43
2018-02-06T20:06:40.303Z,11.03
2018-02-06T20:09:07.006Z,11.73
2018-02-06T20:21:14.580Z,10.13
2018-02-06T20:23:40.821Z,10.83
2018-02-06T20:26:07.050Z,11.43
2018-02-06T20:28:34.779Z,10.90
2018-02-06T20:40:46.328Z,11.10
2018-02-06T20:43:12.651Z,10.90
2018-02-06T20:45:38.909Z,11.90
2018-02-06T20:48:05.606Z,11.00
2018-02-06T20:50:31.808Z,11.03
2018-02-06T20:52:58.844Z,11.00
2018-02-06T21:05:05.371Z,9.90
2018-02-06T21:07:32.279Z,13.17
2018-02-06T21:09:58.528Z,14.53
2018-02-06T21:12:25.080Z,12.50
2018-02-06T21:14:51.343Z,14.57
2018-02-06T21:17:18.431Z,11.50
2018-02-06T21:19:45.027Z,11.70
2018-02-06T21:22:11.978Z,13.27
2018-02-06T21:24:38.166Z,13.50
2018-02-06T21:27:05.409Z,11.47
2018-02-06T21:29:31.633Z,12.33
2018-02-06T21:31:57.792Z,16.37
2018-02-06T21:34:24.325Z,14.30
2018-02-06T21:36:50.522Z,13.73
2018-02-06T21:39:16.665Z,12.70
2018-02-06T21:41:43.318Z,11.47
2018-02-06T21:44:10.230Z,12.23
2018-02-06T21:46:36.355Z,12.90
2018-02-06T21:49:02.804Z,12.77
2018-02-06T21:51:28.955Z,12.40
2018-02-06T21:53:55.067Z,12.00
2018-02-06T21:56:22.298Z,12.90
2018-02-06T21:58:48.396Z,13.27
2018-02-06T22:01:16.048Z,12.60
2018-02-06T22:03:43.285Z,13.20
2018-02-06T22:06:09.916Z,12.23
2018-02-06T22:08:36.556Z,12.10
2018-02-06T22:11:03.131Z,12.70
2018-02-06T22:13:29.283Z,12.47
2018-02-06T22:15:55.400Z,11.33
2018-02-06T22:18:21.923Z,11.97
2018-02-06T22:20:48.018Z,11.97
2018-02-06T22:23:14.176Z,11.50
2018-02-06T22:25:40.624Z,12.50
2018-02-06T22:28:07.371Z,10.43
2018-02-06T22:30:33.478Z,10.60
2018-02-06T22:32:59.921Z,11.80
2018-02-06T22:35:26.050Z,11.83
2018-02-06T22:37:52.203Z,12.37
2018-02-06T22:40:19.405Z,13.30
2018-02-06T22:42:45.499Z,11.97
2018-02-06T22:45:11.619Z,12.23
2018-02-06T22:47:38.087Z,12.53
2018-02-06T22:50:04.248Z,11.90
2018-02-06T22:52:31.123Z,11.77
2018-02-06T22:54:57.698Z,11.90
2018-02-06T22:57:23.807Z,11.93
2018-02-06T22:59:49.918Z,12.30
2018-02-06T23:02:16.998Z,11.17
2018-02-06T23:04:43.687Z,12.33
2018-02-06T23:07:09.847Z,11.63
2018-02-06T23:09:36.249Z,11.57
2018-02-06T23:12:03.066Z,10.57
2018-02-06T23:14:29.946Z,11.90
2018-02-06T23:16:56.407Z,10.50
2018-02-06T23:19:22.534Z,11.60
2018-02-06T23:21:48.656Z,12.10
2018-02-06T23:24:15.091Z,11.80
2018-02-06T23:26:41.218Z,12.20
2018-02-06T23:29:07.349Z,11.73
2018-02-06T23:31:33.893Z,12.43
2018-02-06T23:34:00.008Z,12.90
2018-02-06T23:36:26.133Z,13.57
2018-02-06T23:38:52.573Z,13.77
2018-02-06T23:41:18.689Z,12.17
2018-02-06T23:43:44.821Z,12.67
2018-02-06T23:46:11.245Z,11.97
2018-02-06T23:48:37.372Z,12.33
2018-02-06T23:51:03.534Z,12.00
2018-02-06T23:53:30.696Z,11.87
2018-02-06T23:55:56.801Z,11.80
2018-02-06T23:58:22.916Z,11.13
